Time;durP1;ratioP1;P1;durP2;ratioP2;P2;SDS_P1;SDS_P2;PMS_P1;PMS_P2;Temp;Humidity;BMP_temperature;BMP_pressure;BME280_temperature;BME280_humidity;BME280_pressure;Samples;Min_cycle;Max_cycle;Signal;HPM_P1;HPM_P2
2022/07/22 00:01:34;;;;;;;7.95;2.20;;;;;;;;;;5072635;28;20051;-67
2022/07/22 00:04:02;;;;;;;7.28;2.42;;;;;;;;;;5071324;28;20101;-67
2022/07/22 00:06:28;;;;;;;8.98;2.30;;;;;;;;;;5072371;28;20054;-67
2022/07/22 00:08:54;;;;;;;7.70;2.35;;;;;;;;;;5072241;28;20405;-67
2022/07/22 00:11:20;;;;;;;9.13;2.45;;;;;;;;;;5073752;28;20094;-67
2022/07/22 00:13:46;;;;;;;6.75;2.15;;;;;;;;;;5072234;28;20036;-67
2022/07/22 00:16:12;;;;;;;9.68;2.83;;;;;;;;;;5072508;28;20040;-67
2022/07/22 00:18:38;;;;;;;5.88;2.30;;;;;;;;;;5073697;28;20044;-67
2022/07/22 00:21:05;;;;;;;5.82;1.83;;;;;;;;;;5071799;28;20106;-68
2022/07/22 00:23:31;;;;;;;10.30;2.28;;;;;;;;;;5072552;28;20041;-67
2022/07/22 00:25:57;;;;;;;7.63;1.98;;;;;;;;;;5071805;28;20128;-67
2022/07/22 00:28:23;;;;;;;6.68;1.98;;;;;;;;;;5073491;28;20580;-68
2022/07/22 00:30:49;;;;;;;8.52;2.30;;;;;;;;;;5071042;28;20036;-67
2022/07/22 00:33:15;;;;;;;10.05;2.30;;;;;;;;;;5072761;28;20115;-67
2022/07/22 00:35:41;;;;;;;9.70;2.80;;;;;;;;;;5073077;28;20098;-67
2022/07/22 00:38:07;;;;;;;8.82;2.60;;;;;;;;;;5070364;28;20094;-67
2022/07/22 00:40:33;;;;;;;7.22;1.90;;;;;;;;;;5073186;28;20078;-67
2022/07/22 00:43:00;;;;;;;9.55;2.88;;;;;;;;;;5072312;28;20477;-67
2022/07/22 00:45:26;;;;;;;5.68;2.05;;;;;;;;;;5072306;28;20390;-67
2022/07/22 00:47:52;;;;;;;9.70;2.97;;;;;;;;;;5072690;28;20501;-67
2022/07/22 00:50:19;;;;;;;10.27;2.30;;;;;;;;;;5071460;28;20053;-67
2022/07/22 00:52:46;;;;;;;8.60;2.45;;;;;;;;;;5070891;28;20044;-67
2022/07/22 00:55:12;;;;;;;5.85;1.80;;;;;;;;;;5071575;28;20040;-66
2022/07/22 00:57:38;;;;;;;8.90;1.92;;;;;;;;;;5071577;28;20051;-67
2022/07/22 01:00:06;;;;;;;7.18;2.72;;;;;;;;;;5071397;28;20488;-67
2022/07/22 01:02:32;;;;;;;7.75;1.85;;;;;;;;;;5072860;28;20040;-66
2022/07/22 01:04:58;;;;;;;6.85;1.90;;;;;;;;;;5072050;28;20032;-66
2022/07/22 01:07:24;;;;;;;9.85;2.28;;;;;;;;;;5071924;28;20545;-67
2022/07/22 01:09:50;;;;;;;6.45;1.98;;;;;;;;;;5070888;28;20154;-66
2022/07/22 01:12:16;;;;;;;6.43;1.98;;;;;;;;;;5071659;28;20036;-67
2022/07/22 01:14:42;;;;;;;8.25;2.15;;;;;;;;;;5071634;28;20226;-67
2022/07/22 01:17:08;;;;;;;6.28;2.03;;;;;;;;;;5072190;28;20500;-67
2022/07/22 01:19:35;;;;;;;6.60;2.10;;;;;;;;;;5071629;28;20107;-67
2022/07/22 01:22:01;;;;;;;8.25;2.55;;;;;;;;;;5072012;28;20454;-66
2022/07/22 01:24:28;;;;;;;8.38;2.25;;;;;;;;;;5071552;28;20063;-66
2022/07/22 01:26:54;;;;;;;11.48;3.08;;;;;;;;;;5071294;28;20119;-67
2022/07/22 01:29:20;;;;;;;7.50;2.25;;;;;;;;;;5071592;28;20076;-66
2022/07/22 01:31:46;;;;;;;9.68;1.98;;;;;;;;;;5072161;28;20151;-67
2022/07/22 01:34:12;;;;;;;6.45;1.77;;;;;;;;;;5070044;28;20740;-66
2022/07/22 01:36:38;;;;;;;6.40;1.73;;;;;;;;;;5071279;28;20098;-67
2022/07/22 01:39:04;;;;;;;6.00;2.10;;;;;;;;;;5071904;28;20408;-67
2022/07/22 01:41:30;;;;;;;13.15;2.33;;;;;;;;;;5070516;28;20063;-67
2022/07/22 01:43:56;;;;;;;5.63;1.70;;;;;;;;;;5071602;28;20492;-67
2022/07/22 01:46:23;;;;;;;6.88;1.90;;;;;;;;;;5070197;28;20123;-66
2022/07/22 01:48:50;;;;;;;5.78;1.70;;;;;;;;;;5070953;28;20419;-67
2022/07/22 01:51:16;;;;;;;6.70;1.70;;;;;;;;;;5071673;28;20382;-67
2022/07/22 01:53:42;;;;;;;7.05;2.08;;;;;;;;;;5072299;28;20044;-67
2022/07/22 01:56:09;;;;;;;7.15;2.22;;;;;;;;;;5070905;28;20490;-66
2022/07/22 01:58:35;;;;;;;10.63;2.53;;;;;;;;;;5072290;28;20401;-66
2022/07/22 02:01:01;;;;;;;4.80;1.98;;;;;;;;;;5071453;28;20508;-66
2022/07/22 02:03:28;;;;;;;5.57;2.00;;;;;;;;;;5071219;28;20382;-67
2022/07/22 02:05:54;;;;;;;6.28;1.67;;;;;;;;;;5070322;28;20048;-67
2022/07/22 02:08:20;;;;;;;6.15;2.70;;;;;;;;;;5071732;28;20046;-67
2022/07/22 02:10:46;;;;;;;6.78;1.85;;;;;;;;;;5070974;28;20393;-67
2022/07/22 02:13:12;;;;;;;5.43;2.10;;;;;;;;;;5071787;28;20367;-67
2022/07/22 02:15:38;;;;;;;5.90;2.40;;;;;;;;;;5071188;28;20090;-67
2022/07/22 02:18:14;;;;;;;5.05;1.88;;;;;;;;;;5069854;28;20089;-67
2022/07/22 02:20:41;;;;;;;5.95;1.80;;;;;;;;;;5071886;28;20071;-67
2022/07/22 02:23:07;;;;;;;10.02;3.00;;;;;;;;;;5052782;28;20040;-67
2022/07/22 02:25:34;;;;;;;6.43;2.67;;;;;;;;;;5071979;28;20037;-67
2022/07/22 02:28:00;;;;;;;9.70;2.65;;;;;;;;;;5070125;28;20043;-67
2022/07/22 02:30:26;;;;;;;7.35;2.03;;;;;;;;;;5070764;28;20040;-67
2022/07/22 02:32:52;;;;;;;6.68;2.08;;;;;;;;;;5071473;28;20044;-67
2022/07/22 02:35:18;;;;;;;9.13;2.03;;;;;;;;;;5070402;28;20040;-67
2022/07/22 02:37:44;;;;;;;6.03;2.20;;;;;;;;;;5069322;28;20051;-67
2022/07/22 02:40:11;;;;;;;8.80;2.05;;;;;;;;;;5071422;28;20123;-67
2022/07/22 02:42:37;;;;;;;6.22;1.80;;;;;;;;;;5071670;28;20040;-67
2022/07/22 02:45:03;;;;;;;6.88;2.03;;;;;;;;;;5070193;28;20090;-66
2022/07/22 02:47:29;;;;;;;7.72;2.28;;;;;;;;;;5070363;28;20102;-67
2022/07/22 02:49:55;;;;;;;5.82;2.10;;;;;;;;;;5070543;28;20037;-67
2022/07/22 02:52:22;;;;;;;7.68;2.30;;;;;;;;;;5070984;28;20065;-67
2022/07/22 02:54:48;;;;;;;5.53;2.08;;;;;;;;;;5070011;28;20110;-66
2022/07/22 02:57:14;;;;;;;7.93;1.90;;;;;;;;;;5072559;28;20039;-67
2022/07/22 02:59:40;;;;;;;5.43;1.85;;;;;;;;;;5074247;28;20083;-67
2022/07/22 03:02:06;;;;;;;8.48;2.25;;;;;;;;;;5074433;28;20516;-67
2022/07/22 03:04:32;;;;;;;9.95;1.92;;;;;;;;;;5075029;28;20040;-67
2022/07/22 03:07:01;;;;;;;7.18;1.70;;;;;;;;;;5073873;28;20051;-67
2022/07/22 03:09:27;;;;;;;5.57;1.92;;;;;;;;;;5073652;28;20044;-67
2022/07/22 03:11:53;;;;;;;4.88;1.52;;;;;;;;;;5073629;28;20041;-67
2022/07/22 03:14:19;;;;;;;5.75;1.80;;;;;;;;;;5073918;28;20124;-66
2022/07/22 03:16:45;;;;;;;4.95;1.77;;;;;;;;;;5073170;28;20044;-66
2022/07/22 03:19:11;;;;;;;6.30;2.15;;;;;;;;;;5073746;28;20105;-66
2022/07/22 03:21:37;;;;;;;7.38;2.03;;;;;;;;;;5073554;28;20041;-67
2022/07/22 03:24:04;;;;;;;8.50;2.05;;;;;;;;;;5074154;28;20052;-67
2022/07/22 03:26:30;;;;;;;5.60;1.83;;;;;;;;;;5073839;28;20036;-67
2022/07/22 03:28:56;;;;;;;6.72;2.00;;;;;;;;;;5072554;28;20040;-67
2022/07/22 03:31:22;;;;;;;8.05;1.92;;;;;;;;;;5056656;28;20086;-66
2022/07/22 03:33:48;;;;;;;6.60;2.10;;;;;;;;;;5072428;28;20048;-66
2022/07/22 03:36:14;;;;;;;6.50;2.10;;;;;;;;;;5074218;28;20501;-66
2022/07/22 03:38:40;;;;;;;6.90;2.28;;;;;;;;;;5073224;28;20505;-67
2022/07/22 03:41:06;;;;;;;5.85;1.77;;;;;;;;;;5072968;28;20044;-67
2022/07/22 03:43:32;;;;;;;6.80;2.50;;;;;;;;;;5074373;28;20132;-67
2022/07/22 03:45:58;;;;;;;7.35;2.63;;;;;;;;;;5072537;28;20047;-66
2022/07/22 03:48:24;;;;;;;8.10;2.35;;;;;;;;;;5073464;28;20039;-67
2022/07/22 03:50:51;;;;;;;5.80;1.83;;;;;;;;;;5073747;28;20501;-67
2022/07/22 03:53:17;;;;;;;5.32;1.67;;;;;;;;;;5055974;28;20044;-67
2022/07/22 03:55:44;;;;;;;6.07;1.58;;;;;;;;;;5073026;28;20044;-66
2022/07/22 03:58:10;;;;;;;7.05;2.10;;;;;;;;;;5074029;28;20041;-66
2022/07/22 04:00:36;;;;;;;6.88;1.75;;;;;;;;;;5073936;28;20453;-67
2022/07/22 04:03:02;;;;;;;6.70;1.90;;;;;;;;;;5071322;28;20098;-67
2022/07/22 04:05:28;;;;;;;7.20;2.10;;;;;;;;;;5072925;28;20067;-67
2022/07/22 04:07:55;;;;;;;6.30;2.42;;;;;;;;;;5072939;28;20473;-67
2022/07/22 04:10:21;;;;;;;7.53;2.42;;;;;;;;;;5072386;28;20044;-67
2022/07/22 04:12:47;;;;;;;5.30;1.80;;;;;;;;;;5072339;28;20041;-67
2022/07/22 04:15:13;;;;;;;7.55;2.15;;;;;;;;;;5072777;28;20059;-67
2022/07/22 04:17:39;;;;;;;7.57;1.80;;;;;;;;;;5073766;28;20079;-67
2022/07/22 04:20:05;;;;;;;7.00;2.10;;;;;;;;;;5071668;28;20124;-67
2022/07/22 04:22:32;;;;;;;7.45;2.22;;;;;;;;;;5071534;28;20055;-67
2022/07/22 04:24:58;;;;;;;8.73;2.58;;;;;;;;;;5071887;28;20072;-67
2022/07/22 04:27:24;;;;;;;6.03;2.30;;;;;;;;;;5072322;28;20048;-67
2022/07/22 04:29:50;;;;;;;5.78;1.80;;;;;;;;;;5070946;28;20078;-67
2022/07/22 04:32:17;;;;;;;5.88;1.83;;;;;;;;;;5072048;28;20051;-67
2022/07/22 04:34:43;;;;;;;5.25;1.85;;;;;;;;;;5072064;28;20036;-67
2022/07/22 04:37:09;;;;;;;6.15;2.10;;;;;;;;;;5072338;28;20047;-67
2022/07/22 04:39:35;;;;;;;10.15;2.42;;;;;;;;;;5055628;28;20051;-67
2022/07/22 04:42:01;;;;;;;8.48;2.10;;;;;;;;;;5071293;28;20116;-67
2022/07/22 04:44:27;;;;;;;6.60;1.98;;;;;;;;;;5072457;28;20051;-67
2022/07/22 04:46:53;;;;;;;9.38;2.17;;;;;;;;;;5071175;28;20044;-67
2022/07/22 04:49:19;;;;;;;6.40;2.00;;;;;;;;;;5071725;28;20100;-67
2022/07/22 04:51:45;;;;;;;7.50;2.42;;;;;;;;;;5070527;28;20135;-67
2022/07/22 04:54:11;;;;;;;5.75;1.75;;;;;;;;;;5071358;28;20044;-67
2022/07/22 04:56:37;;;;;;;6.68;2.08;;;;;;;;;;5073093;28;20072;-67
2022/07/22 04:59:03;;;;;;;5.45;1.73;;;;;;;;;;5070148;28;20145;-67
2022/07/22 05:01:29;;;;;;;7.10;1.77;;;;;;;;;;5072849;28;20041;-67
2022/07/22 05:03:55;;;;;;;8.48;2.50;;;;;;;;;;5072354;28;20037;-67
2022/07/22 05:06:21;;;;;;;6.28;2.00;;;;;;;;;;5071948;28;20409;-67
2022/07/22 05:08:47;;;;;;;4.45;1.70;;;;;;;;;;5070934;28;20045;-67
2022/07/22 05:11:13;;;;;;;9.48;2.10;;;;;;;;;;5071238;28;20047;-67
2022/07/22 05:13:39;;;;;;;6.03;1.90;;;;;;;;;;5070569;28;20040;-67
2022/07/22 05:16:06;;;;;;;4.78;1.73;;;;;;;;;;5071990;28;20036;-67
2022/07/22 05:18:32;;;;;;;6.80;1.70;;;;;;;;;;5071839;28;20044;-67
2022/07/22 05:20:58;;;;;;;7.65;1.98;;;;;;;;;;5070757;28;20044;-67
2022/07/22 05:23:24;;;;;;;5.80;2.08;;;;;;;;;;5072499;28;20072;-67
2022/07/22 05:25:50;;;;;;;6.05;1.92;;;;;;;;;;5071484;28;20064;-67
2022/07/22 05:28:16;;;;;;;6.95;1.88;;;;;;;;;;5072099;28;20033;-67
2022/07/22 05:30:42;;;;;;;6.53;1.50;;;;;;;;;;5072532;28;20036;-67
2022/07/22 05:33:08;;;;;;;3.67;1.40;;;;;;;;;;5069875;28;20094;-67
2022/07/22 05:35:34;;;;;;;4.38;1.50;;;;;;;;;;5071098;28;20511;-67
2022/07/22 05:38:00;;;;;;;6.88;1.73;;;;;;;;;;5070888;28;20036;-67
2022/07/22 05:40:28;;;;;;;8.13;2.08;;;;;;;;;;5070584;28;20427;-67
2022/07/22 05:42:54;;;;;;;5.88;2.13;;;;;;;;;;5071483;28;20128;-67
2022/07/22 05:45:20;;;;;;;5.10;1.75;;;;;;;;;;5072229;28;20076;-67
2022/07/22 05:47:46;;;;;;;8.32;1.52;;;;;;;;;;5071227;28;20040;-67
2022/07/22 05:50:12;;;;;;;5.75;1.67;;;;;;;;;;5071673;28;20049;-67
2022/07/22 05:52:38;;;;;;;3.50;1.70;;;;;;;;;;5070994;28;20060;-67
2022/07/22 05:55:05;;;;;;;5.43;2.08;;;;;;;;;;5069502;28;20120;-67
2022/07/22 05:57:31;;;;;;;5.47;1.50;;;;;;;;;;5070702;28;20086;-67
2022/07/22 05:59:58;;;;;;;6.00;1.98;;;;;;;;;;5070221;28;20079;-67
2022/07/22 06:02:24;;;;;;;6.45;1.83;;;;;;;;;;5070179;28;20048;-67
2022/07/22 06:04:50;;;;;;;9.40;2.65;;;;;;;;;;5070546;28;20063;-67
2022/07/22 06:07:17;;;;;;;7.25;1.80;;;;;;;;;;5070618;28;20048;-67
2022/07/22 06:09:43;;;;;;;5.03;1.80;;;;;;;;;;5069645;28;20044;-67
2022/07/22 06:12:09;;;;;;;8.13;2.17;;;;;;;;;;5071648;28;20041;-67
2022/07/22 06:14:36;;;;;;;9.23;2.30;;;;;;;;;;5071858;28;20041;-67
2022/07/22 06:17:03;;;;;;;5.70;1.63;;;;;;;;;;5063298;28;20033;-67
2022/07/22 06:19:29;;;;;;;5.05;1.75;;;;;;;;;;5044898;28;20390;-67
2022/07/22 06:21:55;;;;;;;10.15;1.92;;;;;;;;;;5070502;28;20501;-67
2022/07/22 06:24:21;;;;;;;8.65;2.40;;;;;;;;;;5054534;28;20045;-67
2022/07/22 06:26:48;;;;;;;5.82;1.73;;;;;;;;;;5049853;28;20045;-67
2022/07/22 06:29:29;;;;;;;7.72;2.53;;;;;;;;;;5047012;28;20410;-67
2022/07/22 06:31:55;;;;;;;4.80;1.83;;;;;;;;;;5034069;28;20500;-66
2022/07/22 06:34:21;;;;;;;7.50;2.00;;;;;;;;;;5054434;28;20487;-66
2022/07/22 06:36:47;;;;;;;5.78;1.63;;;;;;;;;;5073060;28;20389;-66
2022/07/22 06:39:13;;;;;;;4.85;1.65;;;;;;;;;;5074214;28;20129;-67
2022/07/22 06:41:39;;;;;;;7.90;1.63;;;;;;;;;;5075463;28;20493;-66
2022/07/22 06:44:05;;;;;;;9.05;2.40;;;;;;;;;;5074236;28;20076;-66
2022/07/22 06:46:31;;;;;;;5.93;1.73;;;;;;;;;;5074242;28;20112;-67
2022/07/22 06:48:58;;;;;;;5.30;1.95;;;;;;;;;;5074900;28;20040;-67
2022/07/22 06:51:24;;;;;;;11.35;2.20;;;;;;;;;;5073270;28;20098;-67
2022/07/22 06:53:50;;;;;;;9.43;1.80;;;;;;;;;;5068162;28;20052;-67
2022/07/22 06:56:16;;;;;;;4.93;1.90;;;;;;;;;;5053493;28;20048;-67
2022/07/22 06:58:42;;;;;;;7.68;1.92;;;;;;;;;;5062269;28;20493;-67
2022/07/22 07:01:09;;;;;;;6.88;2.10;;;;;;;;;;5073399;28;20040;-67
2022/07/22 07:03:35;;;;;;;4.78;1.55;;;;;;;;;;5067851;28;20044;-67
2022/07/22 07:06:07;;;;;;;8.05;2.33;;;;;;;;;;5042493;28;20063;-67
2022/07/22 07:08:33;;;;;;;7.63;1.80;;;;;;;;;;5071037;28;20040;-67
2022/07/22 07:11:00;;;;;;;5.28;2.08;;;;;;;;;;5071321;28;20123;-67
2022/07/22 07:13:26;;;;;;;3.92;1.33;;;;;;;;;;5072636;28;20032;-68
2022/07/22 07:15:52;;;;;;;6.30;1.70;;;;;;;;;;5053231;28;20082;-67
2022/07/22 07:18:18;;;;;;;5.88;1.40;;;;;;;;;;5051357;28;20049;-67
2022/07/22 07:20:44;;;;;;;7.00;1.80;;;;;;;;;;5052206;28;20128;-67
2022/07/22 07:23:10;;;;;;;5.07;1.38;;;;;;;;;;5050895;28;20049;-66
2022/07/22 07:25:36;;;;;;;5.35;1.52;;;;;;;;;;5051730;28;20053;-67
2022/07/22 07:28:02;;;;;;;7.45;1.50;;;;;;;;;;5051669;28;20037;-67
2022/07/22 07:30:28;;;;;;;7.22;1.38;;;;;;;;;;5052695;28;20689;-66
2022/07/22 07:32:54;;;;;;;7.88;1.58;;;;;;;;;;5065915;28;20032;-66
2022/07/22 07:35:20;;;;;;;3.35;1.20;;;;;;;;;;5062957;28;20116;-65
2022/07/22 07:37:47;;;;;;;4.85;1.52;;;;;;;;;;5063640;28;20039;-66
2022/07/22 07:40:13;;;;;;;5.65;1.30;;;;;;;;;;5055953;28;20195;-67
2022/07/22 07:42:39;;;;;;;4.15;1.20;;;;;;;;;;5069017;28;20055;-67
2022/07/22 07:45:05;;;;;;;4.30;1.23;;;;;;;;;;5062568;28;20497;-66
2022/07/22 07:47:31;;;;;;;6.07;1.20;;;;;;;;;;5061333;28;20045;-67
2022/07/22 07:50:00;;;;;;;4.75;1.17;;;;;;;;;;5065060;28;20044;-67
2022/07/22 07:52:26;;;;;;;6.57;1.40;;;;;;;;;;5067071;28;20414;-66
2022/07/22 07:54:52;;;;;;;3.00;1.27;;;;;;;;;;5067620;28;20094;-66
2022/07/22 07:57:18;;;;;;;4.45;0.80;;;;;;;;;;5070006;28;20044;-66
2022/07/22 07:59:44;;;;;;;6.30;1.40;;;;;;;;;;5069135;28;20048;-66
2022/07/22 08:02:10;;;;;;;4.63;1.20;;;;;;;;;;5068978;28;20114;-66
2022/07/22 08:04:37;;;;;;;2.67;1.00;;;;;;;;;;5070173;28;20048;-66
2022/07/22 08:07:03;;;;;;;5.88;1.10;;;;;;;;;;5069528;28;20074;-66
2022/07/22 08:09:30;;;;;;;4.78;1.50;;;;;;;;;;5069213;28;20123;-67
2022/07/22 08:11:56;;;;;;;5.70;1.10;;;;;;;;;;5053106;28;20079;-67
2022/07/22 08:14:23;;;;;;;3.88;1.08;;;;;;;;;;5070858;28;20087;-66
2022/07/22 08:16:49;;;;;;;3.53;0.90;;;;;;;;;;5056197;28;20041;-66
2022/07/22 08:19:15;;;;;;;2.17;0.75;;;;;;;;;;5070438;28;20122;-67
2022/07/22 08:21:42;;;;;;;3.65;0.80;;;;;;;;;;5061583;28;20493;-66
2022/07/22 08:24:11;;;;;;;2.25;0.82;;;;;;;;;;5057599;28;20056;-66
2022/07/22 08:26:37;;;;;;;4.97;1.50;;;;;;;;;;5050887;28;20041;-66
2022/07/22 08:29:04;;;;;;;3.03;0.68;;;;;;;;;;5048855;28;20053;-67
2022/07/22 08:31:34;;;;;;;4.03;0.95;;;;;;;;;;5051766;28;20053;-66
2022/07/22 08:34:00;;;;;;;2.08;0.90;;;;;;;;;;5068857;28;20097;-67
2022/07/22 08:36:26;;;;;;;3.22;0.60;;;;;;;;;;5064759;28;20041;-67
2022/07/22 08:38:52;;;;;;;2.63;0.80;;;;;;;;;;5053095;28;20068;-67
2022/07/22 08:41:19;;;;;;;1.80;0.70;;;;;;;;;;5053736;28;20048;-67
2022/07/22 08:43:46;;;;;;;2.72;0.80;;;;;;;;;;5059431;28;20405;-66
2022/07/22 08:46:12;;;;;;;2.53;0.93;;;;;;;;;;5060089;28;20044;-66
2022/07/22 08:48:39;;;;;;;2.22;0.60;;;;;;;;;;5050467;28;20481;-67
2022/07/22 08:51:06;;;;;;;2.63;0.88;;;;;;;;;;5055886;28;20493;-67
2022/07/22 08:53:32;;;;;;;2.45;0.68;;;18.30;99.90;;;;;;5064418;28;20079;-67
2022/07/22 08:55:58;;;;;;;2.63;1.10;;;18.10;99.90;;;;;;5058121;28;20102;-67
2022/07/22 08:58:25;;;;;;;5.35;1.27;;;;;;;;;;5064697;28;20036;-68
2022/07/22 09:01:15;;;;;;;3.72;1.15;;;18.20;99.90;;;;;;5069096;28;20059;-68
2022/07/22 09:03:51;;;;;;;4.55;1.13;;;18.20;99.90;;;;;;5051008;28;20088;-68
2022/07/22 09:06:18;;;;;;;5.55;1.13;;;18.10;99.90;;;;;;5063099;28;20817;-68
2022/07/22 09:09:11;;;;;;;3.17;1.20;;;18.10;99.90;;;;;;5062382;28;20053;-69
2022/07/22 09:11:36;;;;;;;3.95;1.00;;;18.10;99.90;;;;;;5059379;28;20668;-69
2022/07/22 09:14:02;;;;;;;3.78;1.13;;;17.50;99.90;;;;;;5050054;28;20124;-68
2022/07/22 09:16:44;;;;;;;4.65;1.20;;;17.60;99.90;;;;;;5049106;28;20076;-68
2022/07/22 09:19:11;;;;;;;4.15;1.05;;;17.30;99.90;;;;;;5048426;28;20055;-69
2022/07/22 09:21:43;;;;;;;8.35;1.75;;;17.40;99.90;;;;;;5051295;28;20099;-70
2022/07/22 09:24:26;;;;;;;5.57;1.35;;;17.30;99.90;;;;;;5070169;28;20043;-69
2022/07/22 09:26:54;;;;;;;5.05;1.02;;;17.40;99.90;;;;;;5064357;28;20112;-69
2022/07/22 09:29:20;;;;;;;5.65;1.50;;;17.50;99.90;;;;;;5050208;28;20037;-69
2022/07/22 09:31:51;;;;;;;8.18;1.33;;;17.40;99.90;;;;;;5049424;28;20512;-69
2022/07/22 09:34:27;;;;;;;3.75;1.00;;;17.40;99.90;;;;;;5048449;28;20124;-69
2022/07/22 09:36:55;;;;;;;5.75;1.40;;;17.30;99.90;;;;;;5055292;28;20120;-69
2022/07/22 09:39:26;;;;;;;3.55;0.77;;;17.30;99.90;;;;;;5060522;28;20557;-67
2022/07/22 09:42:04;;;;;;;2.33;0.90;;;17.40;99.90;;;;;;5054555;28;20043;-74
2022/07/22 09:44:30;;;;;;;2.97;0.70;;;17.70;99.90;;;;;;5050643;28;20037;-71
2022/07/22 09:46:55;;;;;;;4.03;1.00;;;17.70;99.90;;;;;;5055084;28;20032;-70
2022/07/22 09:49:31;;;;;;;2.65;0.93;;;17.70;99.90;;;;;;5054037;28;20076;-71
2022/07/22 09:51:57;;;;;;;3.30;0.80;;;17.80;99.90;;;;;;5056632;28;20049;-71
2022/07/22 09:54:22;;;;;;;3.25;0.80;;;17.80;99.90;;;;;;5071289;28;20358;-71
2022/07/22 09:56:48;;;;;;;2.67;0.88;;;18.10;99.90;;;;;;5070549;28;20033;-70
2022/07/22 09:59:14;;;;;;;3.50;0.88;;;18.00;99.90;;;;;;5069987;28;20109;-70
2022/07/22 10:01:41;;;;;;;1.88;0.70;;;18.40;99.90;;;;;;5047155;28;20389;-69
2022/07/22 10:04:09;;;;;;;7.03;1.40;;;18.10;99.90;;;;;;5058669;28;20501;-70
2022/07/22 10:06:37;;;;;;;2.35;0.82;;;18.30;99.90;;;;;;5069411;28;20037;-67
2022/07/22 10:09:05;;;;;;;4.82;1.08;;;18.20;99.90;;;;;;5070201;28;20052;-67
2022/07/22 10:11:31;;;;;;;3.65;0.93;;;18.40;99.90;;;;;;5056234;28;20456;-69
2022/07/22 10:13:57;;;;;;;2.63;0.80;;;18.30;99.90;;;;;;5037321;28;20103;-68
2022/07/22 10:16:23;;;;;;;3.53;0.82;;;18.50;99.90;;;;;;5054973;28;20033;-68
2022/07/22 10:18:49;;;;;;;1.55;0.70;;;18.40;99.90;;;;;;5043031;28;20478;-67
2022/07/22 10:21:14;;;;;;;3.53;1.08;;;18.20;99.90;;;;;;5055760;28;20493;-67
2022/07/22 10:24:18;;;;;;;3.35;1.00;;;18.60;99.90;;;;;;5054791;28;20049;-67
2022/07/22 10:26:52;;;;;;;5.40;1.00;;;18.40;99.90;;;;;;5055470;28;20037;-66
2022/07/22 10:29:32;;;;;;;5.28;0.80;;;18.20;99.90;;;;;;5053620;28;20041;-66
2022/07/22 10:32:16;;;;;;;4.47;1.05;;;18.00;99.90;;;;;;5054238;28;20068;-66
2022/07/22 10:34:43;;;;;;;2.95;0.95;;;18.10;99.90;;;;;;5055776;28;20043;-66
2022/07/22 10:37:34;;;;;;;3.28;0.93;;;18.20;99.90;;;;;;5053699;28;20037;-66
2022/07/22 10:40:21;;;;;;;3.67;0.90;;;18.00;99.90;;;;;;5050645;28;20127;-66
2022/07/22 10:43:06;;;;;;;2.67;0.60;;;19.00;99.90;;;;;;5053466;28;20040;-66
2022/07/22 10:45:46;;;;;;;3.50;1.00;;;18.20;99.90;;;;;;5055622;28;20079;-66
2022/07/22 10:48:16;;;;;;;2.38;0.57;;;18.80;99.90;;;;;;5055053;28;20402;-66
2022/07/22 10:50:45;;;;;;;4.43;0.80;;;18.50;99.90;;;;;;5053192;28;20049;-66
2022/07/22 10:53:14;;;;;;;3.03;0.90;;;18.50;99.90;;;;;;5037094;28;20049;-66
2022/07/22 10:55:59;;;;;;;3.72;1.13;;;18.50;99.90;;;;;;5054122;28;20155;-66
2022/07/22 10:58:33;;;;;;;2.38;0.60;;;18.60;99.90;;;;;;5055340;28;20138;-66
2022/07/22 11:01:03;;;;;;;;;;;18.70;99.90;;;;;;5053718;28;20037;-66
2022/07/22 11:03:33;;;;;;;3.85;1.00;;;18.60;99.90;;;;;;5053214;28;19917;-66
2022/07/22 11:06:16;;;;;;;1.48;0.57;;;19.00;99.90;;;;;;5053616;28;20123;-66
2022/07/22 11:08:44;;;;;;;3.97;0.70;;;18.80;99.90;;;;;;5053875;28;20036;-66
2022/07/22 11:11:09;;;;;;;1.83;0.60;;;19.00;99.90;;;;;;5053880;28;20494;-66
2022/07/22 11:13:39;;;;;;;3.25;1.20;;;18.80;99.90;;;;;;5053988;28;20048;-67
2022/07/22 11:16:24;;;;;;;2.15;0.55;;;18.90;99.90;;;;;;5053186;28;20567;-67
2022/07/22 11:18:59;;;;;;;2.50;0.73;;;18.80;99.90;;;;;;5053574;28;20052;-67
2022/07/22 11:21:25;;;;;;;;;;;19.10;99.90;;;;;;5054537;28;20120;-66
2022/07/22 11:23:53;;;;;;;1.75;0.65;;;18.90;99.90;;;;;;5054539;28;19949;-66
2022/07/22 11:26:40;;;;;;;1.85;0.95;;;19.20;99.90;;;;;;5035989;28;20049;-67
2022/07/22 11:29:07;;;;;;;1.80;0.75;;;18.90;99.90;;;;;;5054000;28;20564;-66
2022/07/22 11:31:33;;;;;;;3.42;0.70;;;19.20;99.90;;;;;;5053793;28;20075;-66
2022/07/22 11:34:13;;;;;;;2.85;0.93;;;19.20;99.90;;;;;;5052697;28;20068;-66
2022/07/22 11:36:44;;;;;;;2.17;0.80;;;19.30;99.90;;;;;;5054756;28;20041;-66
2022/07/22 11:39:11;;;;;;;3.50;0.98;;;19.40;99.90;;;;;;5052201;28;20055;-66
2022/07/22 11:41:38;;;;;;;2.95;1.13;;;19.50;99.90;;;;;;5054528;28;20397;-66
2022/07/22 11:44:04;;;;;;;3.50;0.80;;;19.30;99.90;;;;;;5052656;28;20576;-66
2022/07/22 11:46:39;;;;;;;3.95;0.90;;;19.20;99.90;;;;;;5053423;28;20045;-65
2022/07/22 11:49:06;;;;;;;3.30;0.95;;;19.20;99.90;;;;;;5067021;28;20085;-65
2022/07/22 11:51:33;;;;;;;4.45;1.27;;;18.70;99.90;;;;;;5060258;28;20057;-65
2022/07/22 11:53:59;;;;;;;4.00;1.20;;;19.20;99.90;;;;;;5070876;28;20416;-63
2022/07/22 11:56:26;;;;;;;3.78;1.02;;;19.00;99.90;;;;;;5066139;28;20041;-63
2022/07/22 11:58:54;;;;;;;5.68;1.30;;;19.00;99.90;;;;;;5058163;28;20060;-63
2022/07/22 12:01:24;;;;;;;5.50;1.38;;;18.90;99.90;;;;;;5070090;28;20082;-63
2022/07/22 12:03:59;;;;;;;3.28;1.20;;;18.80;99.90;;;;;;5049131;28;20053;-63
2022/07/22 12:06:27;;;;;;;5.22;1.13;;;19.00;99.90;;;;;;5060929;28;20052;-65
2022/07/22 12:08:55;;;;;;;5.68;1.48;;;18.90;99.90;;;;;;5050985;28;20052;-65
2022/07/22 12:11:24;;;;;;;7.90;1.40;;;18.80;99.90;;;;;;5055096;28;20089;-66
2022/07/22 12:13:52;;;;;;;4.38;1.00;;;18.90;99.90;;;;;;5070578;28;20482;-65
2022/07/22 12:16:17;;;;;;;5.15;1.48;;;18.90;99.90;;;;;;5070148;28;20166;-64
2022/07/22 12:18:43;;;;;;;6.50;1.85;;;18.70;99.90;;;;;;5065705;28;20052;-64
2022/07/22 12:21:09;;;;;;;6.35;1.30;;;19.00;99.90;;;;;;5049236;28;20497;-64
2022/07/22 12:23:34;;;;;;;2.80;1.15;;;18.80;99.90;;;;;;5050262;28;20120;-64
2022/07/22 12:26:01;;;;;;;7.70;1.38;;;18.90;99.90;;;;;;5068186;28;20036;-64
2022/07/22 12:28:28;;;;;;;4.72;1.27;;;18.90;99.90;;;;;;5062593;28;20523;-65
2022/07/22 12:30:55;;;;;;;4.60;1.08;;;19.30;99.90;;;;;;5061462;28;20040;-64
2022/07/22 12:33:22;;;;;;;6.40;1.20;;;19.30;99.90;;;;;;5052454;28;20052;-64
2022/07/22 12:36:01;;;;;;;5.28;1.40;;;19.10;99.90;;;;;;5070110;28;20468;-64
2022/07/22 12:38:27;;;;;;;3.83;1.17;;;19.20;99.90;;;;;;5069668;28;20538;-64
2022/07/22 12:40:53;;;;;;;4.22;1.00;;;19.00;99.90;;;;;;5069312;28;20048;-64
2022/07/22 12:43:25;;;;;;;3.97;1.10;;;18.60;99.90;;;;;;5069165;28;20048;-65
2022/07/22 12:45:51;;;;;;;4.55;1.45;;;19.10;99.90;;;;;;5065638;28;20040;-65
2022/07/22 12:48:17;;;;;;;6.18;1.52;;;18.90;99.90;;;;;;5049439;28;20135;-66
2022/07/22 12:50:44;;;;;;;5.10;1.13;;;18.80;99.90;;;;;;5049111;28;20091;-66
2022/07/22 12:53:13;;;;;;;4.28;1.05;;;18.80;99.90;;;;;;5047463;28;20055;-66
2022/07/22 12:55:47;;;;;;;4.63;0.90;;;18.90;99.90;;;;;;5036148;28;20045;-66
2022/07/22 12:58:14;;;;;;;2.10;0.82;;;19.10;99.90;;;;;;5052974;28;20037;-66
2022/07/22 13:00:46;;;;;;;3.50;1.02;;;19.30;99.90;;;;;;5070193;28;20044;-67
2022/07/22 13:03:12;;;;;;;2.08;0.88;;;19.20;99.90;;;;;;5052300;28;20083;-68
2022/07/22 13:05:38;;;;;;;4.88;1.17;;;18.70;99.90;;;;;;5058228;28;20040;-69
2022/07/22 13:08:04;;;;;;;4.47;1.17;;;19.10;99.90;;;;;;5069015;28;20501;-69
2022/07/22 13:10:30;;;;;;;4.43;1.13;;;19.10;99.90;;;;;;5067282;28;20542;-69
2022/07/22 13:12:56;;;;;;;4.05;1.00;;;19.10;99.90;;;;;;5069071;28;20040;-69
2022/07/22 13:15:22;;;;;;;4.97;1.45;;;19.90;99.90;;;;;;5066773;28;20055;-68
2022/07/22 13:17:49;;;;;;;3.70;0.90;;;19.40;99.90;;;;;;5067622;28;20109;-68
2022/07/22 13:20:20;;;;;;;3.50;1.00;;;19.30;99.90;;;;;;5059987;28;20044;-68
2022/07/22 13:22:47;;;;;;;3.25;1.10;;;19.30;99.90;;;;;;5069640;28;20072;-68
2022/07/22 13:25:13;;;;;;;3.50;1.60;;;19.30;99.90;;;;;;5068625;28;20074;-68
2022/07/22 13:27:39;;;;;;;2.65;1.00;;;19.30;99.90;;;;;;5068126;28;20897;-68
2022/07/22 13:30:06;;;;;;;2.95;1.08;;;19.20;99.90;;;;;;5067062;28;20075;-68
2022/07/22 13:32:32;;;;;;;2.83;1.10;;;19.20;99.90;;;;;;5062589;28;20044;-68
2022/07/22 13:34:57;;;;;;;2.78;0.85;;;19.20;99.90;;;;;;5067749;28;20044;-68
2022/07/22 13:37:24;;;;;;;4.32;1.63;;;19.20;99.90;;;;;;5069527;28;20127;-67
2022/07/22 13:39:50;;;;;;;6.95;2.00;;;18.90;99.90;;;;;;5068200;28;20482;-68
2022/07/22 13:42:17;;;;;;;3.20;1.13;;;19.00;99.90;;;;;;5067006;28;20486;-68
2022/07/22 13:44:44;;;;;;;2.45;1.08;;;19.00;99.90;;;;;;5068870;28;20052;-68
2022/07/22 13:47:11;;;;;;;2.75;1.10;;;19.10;99.90;;;;;;5066138;28;20051;-66
2022/07/22 13:49:37;;;;;;;3.83;1.00;;;19.00;99.90;;;;;;5067917;28;20056;-67
2022/07/22 13:52:03;;;;;;;4.63;1.17;;;18.90;99.90;;;;;;5067927;28;20105;-67
2022/07/22 13:54:28;;;;;;;3.78;1.20;;;18.90;99.90;;;;;;5069574;28;20040;-67
2022/07/22 13:56:54;;;;;;;4.25;1.10;;;18.90;99.90;;;;;;5065438;28;20059;-66
2022/07/22 13:59:20;;;;;;;3.90;1.10;;;18.80;99.90;;;;;;5048219;28;20126;-65